< < Back
Terminal Aerodrome Forecast


Current Version              Previous Versions:   1  2  3  4  5  6  7  8  9  

Terminal Aerodrome Forecast

897
FTUS44 KMRX 012321
TAFCHA
TAF
KCHA 012321Z 0200/0224 18014KT 3SM -RA BR OVC010
      TEMPO 0202/0206 2SM RA OVC007
     FM020600 26012KT 3SM -RA SCT007 OVC015
     FM020900 29010KT P6SM OVC020
     FM021200 31013G23KT P6SM BKN025=



Latest METAR

248
SAUS80 KWBC 020000
MTRCHA
METAR KCHA 012353Z 18009KT 3SM BR OVC010 12/10 A2981 RMK AO2 RAE31
SLP093 P0001 60015 T01170100 10117 20078 56025


USA.gov is the U.S. government's official web portal to all federal, state and local government web resources and services.